Time;durP1;ratioP1;P1;durP2;ratioP2;P2;SDS_P1;SDS_P2;PMS_P1;PMS_P2;Temp;Humidity;BMP_temperature;BMP_pressure;BME280_temperature;BME280_humidity;BME280_pressure;Samples;Min_cycle;Max_cycle;Signal;HPM_P1;HPM_P2
2023/05/04 00:02:05;;;;;;;4.93;3.08;;;14.40;67.20;;;;;;2370698;53;20933;-67
2023/05/04 00:04:34;;;;;;;4.87;3.00;;;14.30;66.80;;;;;;2623316;52;20977;-67
2023/05/04 00:07:01;;;;;;;6.03;3.58;;;14.30;67.10;;;;;;2370391;53;20965;-67
2023/05/04 00:09:30;;;;;;;5.28;3.30;;;14.30;67.20;;;;;;2370688;53;20903;-68
2023/05/04 00:11:57;;;;;;;6.68;4.60;;;14.20;67.10;;;;;;2623487;52;20953;-68
2023/05/04 00:14:23;;;;;;;5.97;4.07;;;14.20;67.20;;;;;;2623333;52;21043;-72
2023/05/04 00:16:50;;;;;;;5.95;3.78;;;14.20;67.20;;;;;;2369487;53;21041;-71
2023/05/04 00:19:18;;;;;;;6.45;3.78;;;14.10;67.20;;;;;;2374148;53;21740;-67
2023/05/04 00:21:44;;;;;;;6.18;3.75;;;14.10;67.20;;;;;;2622483;52;20930;-69
2023/05/04 00:24:10;;;;;;;6.35;4.28;;;14.00;67.20;;;;;;2624208;52;20930;-70
2023/05/04 00:26:37;;;;;;;7.32;4.70;;;14.00;67.40;;;;;;2621778;52;20916;-71
2023/05/04 00:29:03;;;;;;;7.40;5.25;;;14.00;67.50;;;;;;2623520;52;21097;-67
2023/05/04 00:31:29;;;;;;;5.93;4.12;;;13.90;67.50;;;;;;2370839;53;20950;-69
2023/05/04 00:33:56;;;;;;;5.82;3.80;;;13.90;67.60;;;;;;2622379;52;20952;-69
2023/05/04 00:36:23;;;;;;;5.35;3.70;;;13.90;67.80;;;;;;2370383;53;20994;-69
2023/05/04 00:38:50;;;;;;;5.40;3.75;;;13.90;68.00;;;;;;2373412;53;22044;-67
2023/05/04 00:41:17;;;;;;;4.95;3.20;;;13.90;68.00;;;;;;2370411;53;21021;-68
2023/05/04 00:43:43;;;;;;;4.80;3.50;;;13.90;68.10;;;;;;2368998;53;20938;-68
2023/05/04 00:46:12;;;;;;;4.50;3.15;;;13.90;68.10;;;;;;2370583;53;20918;-71
2023/05/04 00:48:42;;;;;;;4.93;3.30;;;13.90;68.20;;;;;;2370301;53;21396;-71
2023/05/04 00:51:11;;;;;;;4.53;3.00;;;13.80;68.10;;;;;;2594303;52;20970;-67
2023/05/04 00:53:37;;;;;;;5.00;3.05;;;13.90;68.00;;;;;;2622764;52;21537;-70
2023/05/04 00:56:05;;;;;;;4.85;3.28;;;13.80;68.20;;;;;;2374138;53;20939;-72
2023/05/04 00:58:32;;;;;;;4.87;3.15;;;13.80;68.10;;;;;;2370366;53;20958;-72
2023/05/04 01:00:58;;;;;;;5.47;2.97;;;13.90;68.30;;;;;;2370920;53;21838;-70
2023/05/04 01:03:27;;;;;;;4.93;3.30;;;13.80;68.20;;;;;;2370952;53;21085;-68
2023/05/04 01:12:47;;;;;;;5.82;4.12;;;13.80;68.30;;;;;;2373251;53;20927;-70
2023/05/04 01:15:13;;;;;;;3.83;2.30;;;13.80;67.00;;;;;;2622256;52;20934;-67
2023/05/04 01:17:40;;;;;;;4.95;3.33;;;13.80;68.30;;;;;;2622803;52;20966;-68
2023/05/04 01:20:08;;;;;;;6.43;3.08;;;13.80;68.40;;;;;;2623665;52;21285;-69
2023/05/04 01:22:36;;;;;;;4.40;2.90;;;13.70;68.40;;;;;;2369508;53;21402;-67
2023/05/04 01:25:03;;;;;;;5.62;3.95;;;13.70;68.40;;;;;;2373163;53;20963;-68
2023/05/04 01:27:46;;;;;;;5.62;4.03;;;13.70;68.60;;;;;;2370055;53;21010;-67
2023/05/04 01:30:18;;;;;;;5.18;3.67;;;13.70;68.00;;;;;;2370180;53;20997;-67
2023/05/04 01:32:44;;;;;;;4.53;3.20;;;13.70;68.70;;;;;;2369256;53;21012;-69
2023/05/04 01:35:11;;;;;;;6.00;4.22;;;13.70;69.00;;;;;;2623170;52;21045;-70
2023/05/04 01:37:37;;;;;;;5.40;3.53;;;13.70;68.70;;;;;;2369952;53;21038;-70
2023/05/04 01:40:04;;;;;;;5.75;3.45;;;13.70;68.70;;;;;;2622163;52;21009;-66
2023/05/04 01:42:30;;;;;;;5.43;3.42;;;13.70;68.70;;;;;;2623553;52;20915;-67
2023/05/04 01:44:57;;;;;;;4.43;3.00;;;13.60;68.50;;;;;;2622529;52;21349;-70
2023/05/04 01:47:23;;;;;;;5.03;3.22;;;13.60;68.60;;;;;;2370927;53;21071;-72
2023/05/04 01:49:50;;;;;;;5.82;3.87;;;13.60;68.60;;;;;;2621884;52;21771;-70
2023/05/04 01:52:17;;;;;;;6.85;4.47;;;13.60;68.60;;;;;;2370211;53;20977;-68
2023/05/04 01:54:43;;;;;;;6.05;4.50;;;13.50;68.40;;;;;;2621707;52;20993;-67
2023/05/04 01:57:09;;;;;;;5.87;4.28;;;13.50;68.40;;;;;;2370298;53;21831;-70
2023/05/04 01:59:36;;;;;;;6.65;3.95;;;13.50;68.50;;;;;;2622960;52;21546;-71
2023/05/04 02:02:02;;;;;;;7.57;4.03;;;13.50;68.50;;;;;;2622730;52;20938;-69
2023/05/04 02:04:31;;;;;;;6.12;4.40;;;13.50;68.50;;;;;;2623171;52;20906;-69
2023/05/04 02:06:57;;;;;;;5.90;4.30;;;13.50;68.60;;;;;;2369762;53;20929;-70
2023/05/04 02:09:23;;;;;;;7.05;4.75;;;13.40;68.50;;;;;;2370350;53;21434;-67
2023/05/04 02:11:50;;;;;;;6.25;4.55;;;13.40;68.50;;;;;;2622439;52;20914;-68
2023/05/04 02:14:16;;;;;;;8.48;5.10;;;13.40;68.50;;;;;;2623122;52;20922;-67
2023/05/04 02:16:43;;;;;;;6.70;4.12;;;13.40;68.50;;;;;;2621452;52;20986;-68
2023/05/04 02:19:09;;;;;;;5.95;4.22;;;13.40;68.50;;;;;;2622687;52;21060;-70
2023/05/04 02:21:38;;;;;;;5.05;3.45;;;13.30;68.50;;;;;;2369397;53;20965;-67
2023/05/04 02:24:05;;;;;;;5.68;4.18;;;13.30;68.40;;;;;;2370777;53;20946;-70
2023/05/04 02:26:32;;;;;;;5.97;4.18;;;13.30;68.50;;;;;;2370401;53;20962;-69
2023/05/04 02:28:58;;;;;;;5.80;4.22;;;13.40;68.60;;;;;;2622411;52;21728;-69
2023/05/04 02:31:27;;;;;;;5.90;4.35;;;13.30;68.60;;;;;;2370617;53;20938;-69
2023/05/04 02:33:53;;;;;;;5.50;3.75;;;13.30;68.50;;;;;;2369563;53;21391;-67
2023/05/04 02:36:19;;;;;;;4.60;3.47;;;13.20;68.50;;;;;;2622897;52;20962;-67
2023/05/04 02:38:46;;;;;;;5.95;4.05;;;13.30;68.70;;;;;;2621901;52;21234;-71
2023/05/04 02:41:12;;;;;;;4.60;3.20;;;13.20;68.60;;;;;;2370160;53;20957;-68
2023/05/04 02:43:39;;;;;;;6.82;4.68;;;13.20;68.50;;;;;;2373247;53;20984;-71
2023/05/04 02:46:05;;;;;;;6.10;4.45;;;13.20;68.50;;;;;;2369400;53;21724;-69
2023/05/04 02:48:32;;;;;;;6.37;4.68;;;13.20;68.50;;;;;;2370226;53;21501;-67
2023/05/04 02:51:01;;;;;;;8.27;5.80;;;13.10;68.40;;;;;;2369950;53;20993;-67
2023/05/04 02:53:28;;;;;;;7.57;5.05;;;13.10;68.30;;;;;;2370611;53;20972;-68
2023/05/04 02:55:54;;;;;;;7.57;5.45;;;13.10;68.50;;;;;;2370125;53;21029;-72
2023/05/04 02:58:20;;;;;;;8.95;5.50;;;13.10;68.50;;;;;;2623264;52;20942;-70
2023/05/04 03:00:47;;;;;;;7.85;6.05;;;13.10;68.40;;;;;;2380995;52;1312642;-68
2023/05/04 03:03:15;;;;;;;8.32;5.22;;;13.10;68.50;;;;;;2370113;53;20930;-68
2023/05/04 03:05:41;;;;;;;7.53;5.07;;;13.00;68.50;;;;;;2622407;52;20926;-70
2023/05/04 03:08:08;;;;;;;6.62;4.68;;;13.00;68.50;;;;;;2622215;52;21021;-69
2023/05/04 03:10:34;;;;;;;7.25;4.70;;;13.00;68.50;;;;;;2372654;53;20935;-68
2023/05/04 03:13:04;;;;;;;7.55;5.28;;;12.90;68.50;;;;;;2622247;52;21379;-68
2023/05/04 03:15:33;;;;;;;6.85;4.78;;;12.90;68.50;;;;;;2622635;52;20934;-68
2023/05/04 03:18:00;;;;;;;6.32;4.37;;;12.90;68.40;;;;;;2621723;52;20931;-69
2023/05/04 03:20:26;;;;;;;6.75;4.55;;;12.80;68.40;;;;;;2623184;52;21495;-70
2023/05/04 03:22:52;;;;;;;6.50;4.78;;;12.80;68.40;;;;;;2373495;54;20906;-68
2023/05/04 03:25:19;;;;;;;6.78;4.85;;;12.80;68.40;;;;;;2369442;53;20985;-69
2023/05/04 03:27:46;;;;;;;7.12;4.18;;;12.80;68.40;;;;;;2370252;53;21026;-68
2023/05/04 03:30:15;;;;;;;6.93;4.47;;;12.70;68.40;;;;;;2622389;52;21369;-69
2023/05/04 03:32:41;;;;;;;6.05;4.45;;;12.70;68.40;;;;;;2369841;52;20946;-71
2023/05/04 03:35:08;;;;;;;6.50;4.57;;;12.70;68.50;;;;;;2370119;53;21714;-69
2023/05/04 03:37:35;;;;;;;7.03;4.55;;;12.70;68.50;;;;;;2370365;53;20922;-68
2023/05/04 03:40:02;;;;;;;6.10;4.07;;;12.60;68.40;;;;;;2369914;53;20949;-68
2023/05/04 03:42:29;;;;;;;6.00;4.30;;;12.60;68.40;;;;;;2370621;53;21005;-67
2023/05/04 03:44:56;;;;;;;5.90;4.20;;;12.60;68.40;;;;;;2621656;52;21867;-67
2023/05/04 03:47:23;;;;;;;6.60;4.37;;;12.60;68.40;;;;;;2370385;53;21201;-68
2023/05/04 03:49:50;;;;;;;6.18;4.18;;;12.60;68.50;;;;;;2369453;53;21932;-70
2023/05/04 03:52:20;;;;;;;6.22;4.12;;;12.50;68.40;;;;;;2623042;52;21013;-70
2023/05/04 03:54:46;;;;;;;5.62;4.10;;;12.50;68.30;;;;;;2369950;53;20974;-69
2023/05/04 03:57:13;;;;;;;6.40;4.10;;;12.50;68.40;;;;;;2622609;52;21041;-70
2023/05/04 03:59:39;;;;;;;7.57;5.10;;;12.50;68.50;;;;;;2622005;52;21017;-67
2023/05/04 04:02:06;;;;;;;5.97;3.78;;;12.50;68.50;;;;;;2367830;53;21321;-68
2023/05/04 04:04:32;;;;;;;7.20;4.78;;;12.50;68.50;;;;;;2370272;53;20946;-68
2023/05/04 04:06:58;;;;;;;5.35;3.90;;;12.40;68.30;;;;;;2369440;53;21764;-70
2023/05/04 04:09:25;;;;;;;5.60;3.80;;;12.40;68.30;;;;;;2622658;52;21068;-70
2023/05/04 04:11:52;;;;;;;8.52;4.72;;;12.30;68.30;;;;;;2622027;52;20934;-72
2023/05/04 04:14:18;;;;;;;6.22;4.00;;;12.30;68.40;;;;;;2622852;52;21401;-73
2023/05/04 04:16:44;;;;;;;6.68;3.70;;;12.30;68.40;;;;;;2358598;53;20915;-71
2023/05/04 04:19:11;;;;;;;6.10;4.30;;;12.30;68.40;;;;;;2362359;53;20997;-70
2023/05/04 04:21:38;;;;;;;7.07;4.03;;;12.20;68.40;;;;;;2622908;52;20942;-71
2023/05/04 04:24:04;;;;;;;6.55;4.60;;;12.20;68.40;;;;;;2622410;52;21015;-71
2023/05/04 04:26:32;;;;;;;7.55;5.15;;;12.20;68.50;;;;;;2623112;52;21462;-69
2023/05/04 04:29:00;;;;;;;6.20;4.20;;;12.20;68.70;;;;;;2369190;53;20931;-74
2023/05/04 04:31:26;;;;;;;7.32;4.43;;;12.20;68.70;;;;;;2623576;52;20985;-72
2023/05/04 04:33:53;;;;;;;6.15;3.97;;;12.20;68.70;;;;;;2621713;52;21329;-72
2023/05/04 04:36:19;;;;;;;10.02;5.25;;;12.20;68.70;;;;;;2369931;53;21001;-71
2023/05/04 04:38:46;;;;;;;7.37;4.70;;;12.10;68.70;;;;;;2369886;53;20926;-74
2023/05/04 04:41:12;;;;;;;8.20;4.55;;;12.10;68.70;;;;;;2621998;52;20967;-70
2023/05/04 04:43:39;;;;;;;7.95;4.60;;;12.10;68.80;;;;;;2369934;52;21036;-69
2023/05/04 04:46:07;;;;;;;6.10;4.40;;;12.10;68.80;;;;;;2622812;52;20918;-72
2023/05/04 04:48:33;;;;;;;6.70;4.55;;;12.10;68.90;;;;;;2622684;52;21828;-74
2023/05/04 04:50:59;;;;;;;6.82;4.12;;;12.10;68.90;;;;;;2369469;53;21787;-71
2023/05/04 04:53:25;;;;;;;7.62;4.62;;;12.10;69.00;;;;;;2622755;52;20920;-70
2023/05/04 04:55:52;;;;;;;9.90;5.30;;;12.10;69.10;;;;;;2369343;53;21974;-72
2023/05/04 04:58:19;;;;;;;7.78;4.62;;;12.00;69.10;;;;;;2370022;53;20954;-74
2023/05/04 05:00:51;;;;;;;7.35;5.20;;;12.00;69.10;;;;;;2370447;53;20941;-72
2023/05/04 05:03:18;;;;;;;9.88;5.55;;;12.10;69.30;;;;;;2623094;52;20906;-71
2023/05/04 05:05:45;;;;;;;8.35;4.47;;;12.10;69.40;;;;;;2622295;52;20978;-73
2023/05/04 05:08:11;;;;;;;8.30;5.32;;;12.10;69.50;;;;;;2369448;53;20982;-73
2023/05/04 05:10:37;;;;;;;8.45;5.43;;;12.10;69.50;;;;;;2370020;53;20993;-70
2023/05/04 05:13:07;;;;;;;9.02;5.53;;;12.10;69.60;;;;;;2369740;53;20981;-73
2023/05/04 05:15:33;;;;;;;7.22;5.03;;;12.10;69.70;;;;;;2620908;52;22064;-69
2023/05/04 05:18:00;;;;;;;8.15;5.53;;;12.10;69.80;;;;;;2622308;52;20934;-73
2023/05/04 05:20:26;;;;;;;8.88;6.00;;;12.10;69.80;;;;;;2371002;53;20930;-71
2023/05/04 05:22:54;;;;;;;10.15;5.43;;;12.10;69.90;;;;;;2369682;53;20985;-71
2023/05/04 05:25:20;;;;;;;9.40;5.95;;;12.20;70.10;;;;;;2594768;52;20926;-72
2023/05/04 05:27:47;;;;;;;9.80;6.50;;;12.20;70.10;;;;;;2373007;53;20987;-73
2023/05/04 05:30:13;;;;;;;17.20;6.97;;;12.20;70.20;;;;;;2622133;52;21028;-72
2023/05/04 05:32:39;;;;;;;12.90;8.55;;;12.20;70.30;;;;;;2623082;52;20994;-71
2023/05/04 05:35:07;;;;;;;15.27;9.38;;;12.20;70.40;;;;;;2622287;52;20966;-71
2023/05/04 05:37:33;;;;;;;13.02;8.88;;;12.30;70.50;;;;;;2370688;53;20938;-71
2023/05/04 05:39:59;;;;;;;10.25;7.50;;;12.30;70.60;;;;;;2621556;52;21018;-73
2023/05/04 05:42:30;;;;;;;10.50;7.32;;;12.40;70.80;;;;;;2623190;52;21061;-71
2023/05/04 05:45:00;;;;;;;7.82;5.47;;;12.40;70.80;;;;;;2369130;53;21029;-74
2023/05/04 05:47:27;;;;;;;7.82;5.25;;;12.50;71.10;;;;;;2370572;53;21089;-70
2023/05/04 05:49:53;;;;;;;9.48;5.32;;;12.50;71.20;;;;;;2369628;53;20939;-69
2023/05/04 05:52:22;;;;;;;7.97;5.40;;;12.50;71.30;;;;;;2370100;53;21026;-69
2023/05/04 05:54:48;;;;;;;6.93;4.53;;;12.60;71.50;;;;;;2623110;52;21003;-71
2023/05/04 05:57:16;;;;;;;7.57;5.22;;;12.60;71.60;;;;;;2369640;53;20992;-69
2023/05/04 05:59:43;;;;;;;6.55;4.55;;;12.70;71.70;;;;;;2623137;52;21033;-70
2023/05/04 06:02:13;;;;;;;7.62;4.82;;;12.80;72.00;;;;;;2369731;53;20953;-73
2023/05/04 06:04:43;;;;;;;6.47;4.40;;;12.90;72.10;;;;;;2370286;53;20962;-72
2023/05/04 06:07:10;;;;;;;8.55;5.53;;;12.90;72.00;;;;;;2368365;53;20974;-72
2023/05/04 06:09:36;;;;;;;8.40;5.68;;;13.00;72.20;;;;;;2622319;52;20979;-72
2023/05/04 06:12:05;;;;;;;7.35;5.37;;;13.00;72.10;;;;;;2621698;52;20914;-73
2023/05/04 06:14:34;;;;;;;7.22;5.05;;;13.10;72.20;;;;;;2622240;52;20957;-68
2023/05/04 06:17:00;;;;;;;6.90;4.78;;;13.20;72.30;;;;;;2620886;52;20922;-68
2023/05/04 06:19:27;;;;;;;5.87;4.70;;;13.30;72.50;;;;;;2370351;53;21007;-74
2023/05/04 06:21:54;;;;;;;7.20;5.00;;;13.30;72.50;;;;;;2621627;52;21002;-69
2023/05/04 06:24:23;;;;;;;7.45;5.18;;;13.40;72.60;;;;;;2370331;53;20926;-70
2023/05/04 06:26:50;;;;;;;6.97;4.55;;;13.50;72.80;;;;;;2622495;52;20926;-69
2023/05/04 06:29:16;;;;;;;6.75;4.47;;;13.50;72.80;;;;;;2370493;53;21830;-68
2023/05/04 06:31:45;;;;;;;7.95;5.35;;;13.60;72.90;;;;;;2623636;52;21073;-68
2023/05/04 06:34:15;;;;;;;7.43;5.18;;;13.70;72.90;;;;;;2623254;52;21012;-71
2023/05/04 06:36:42;;;;;;;7.15;4.35;;;13.70;72.90;;;;;;2623058;52;21759;-68
2023/05/04 06:39:09;;;;;;;6.80;4.97;;;13.80;73.10;;;;;;2622442;52;21442;-69
2023/05/04 06:41:36;;;;;;;7.37;5.12;;;13.90;73.30;;;;;;2370702;53;20950;-69
2023/05/04 06:44:05;;;;;;;6.78;4.93;;;14.00;73.50;;;;;;2369739;53;20930;-71
2023/05/04 06:46:36;;;;;;;7.25;4.95;;;14.10;73.50;;;;;;2370999;53;21010;-69
2023/05/04 06:49:03;;;;;;;6.45;4.75;;;14.20;73.70;;;;;;2373526;53;21046;-71
2023/05/04 06:51:31;;;;;;;7.62;5.43;;;14.30;73.90;;;;;;2370554;53;20974;-69
2023/05/04 06:54:00;;;;;;;7.20;5.25;;;14.40;74.00;;;;;;2370848;53;20917;-70
2023/05/04 06:56:27;;;;;;;8.13;4.93;;;14.50;74.10;;;;;;2623713;52;21065;-70
2023/05/04 06:58:53;;;;;;;7.62;5.62;;;14.60;74.20;;;;;;2622513;52;20937;-69
2023/05/04 07:01:20;;;;;;;8.35;6.12;;;14.70;74.50;;;;;;2623004;52;21024;-69
2023/05/04 07:03:47;;;;;;;6.50;5.10;;;14.80;74.70;;;;;;2370486;53;21033;-68
2023/05/04 07:06:13;;;;;;;8.00;6.32;;;14.90;74.90;;;;;;2370246;53;20989;-70
2023/05/04 07:08:39;;;;;;;7.00;5.47;;;15.00;75.20;;;;;;2623036;52;20918;-70
2023/05/04 07:11:07;;;;;;;9.40;6.22;;;15.20;75.70;;;;;;2370076;53;20970;-70
2023/05/04 07:13:34;;;;;;;7.85;5.82;;;15.30;76.10;;;;;;2622835;52;20946;-70
2023/05/04 07:16:00;;;;;;;8.88;6.62;;;15.50;76.60;;;;;;2370355;53;21432;-71
2023/05/04 07:18:27;;;;;;;8.25;5.80;;;15.60;76.80;;;;;;2374298;53;21891;-68
2023/05/04 07:20:56;;;;;;;9.27;6.35;;;15.80;77.30;;;;;;2621216;52;21915;-70
2023/05/04 07:23:27;;;;;;;9.23;6.53;;;16.00;77.70;;;;;;2624063;52;20902;-69
2023/05/04 07:25:53;;;;;;;8.23;6.18;;;16.20;78.00;;;;;;2370360;53;21451;-69
2023/05/04 07:28:19;;;;;;;8.80;6.65;;;16.40;78.00;;;;;;2371032;53;20981;-70
2023/05/04 07:30:46;;;;;;;8.80;6.43;;;16.60;78.10;;;;;;2370957;53;20953;-68
2023/05/04 07:33:12;;;;;;;8.02;6.57;;;16.80;78.20;;;;;;2370239;53;21100;-71
2023/05/04 07:35:39;;;;;;;9.32;6.18;;;16.90;78.10;;;;;;2375740;52;21562;-70
2023/05/04 07:38:05;;;;;;;8.50;6.43;;;17.10;78.10;;;;;;2370956;52;21016;-71
2023/05/04 07:40:32;;;;;;;9.32;6.37;;;17.30;78.10;;;;;;2624115;52;21030;-71
2023/05/04 07:42:59;;;;;;;7.72;6.15;;;17.50;78.00;;;;;;2370924;53;20961;-68
2023/05/04 07:45:25;;;;;;;7.37;5.78;;;17.70;77.90;;;;;;2370850;53;20973;-69
2023/05/04 07:47:54;;;;;;;7.53;6.03;;;17.80;77.60;;;;;;2623576;52;20950;-71
2023/05/04 07:50:20;;;;;;;8.07;5.85;;;18.00;77.50;;;;;;2623902;52;20950;-70
2023/05/04 07:52:48;;;;;;;6.57;5.28;;;18.10;77.20;;;;;;2623572;52;21517;-70
2023/05/04 07:55:15;;;;;;;7.50;5.65;;;18.30;77.10;;;;;;2622859;52;20982;-69
2023/05/04 07:57:41;;;;;;;7.55;6.43;;;18.40;77.20;;;;;;2371537;53;20974;-71
2023/05/04 08:00:09;;;;;;;8.70;5.85;;;18.60;77.40;;;;;;2624593;52;21399;-70
2023/05/04 08:02:36;;;;;;;7.10;5.87;;;18.70;77.30;;;;;;2374651;53;20927;-70
2023/05/04 08:05:02;;;;;;;6.72;5.20;;;18.90;77.40;;;;;;2623093;52;20916;-70
2023/05/04 08:07:31;;;;;;;6.85;5.80;;;19.00;77.10;;;;;;2371384;53;21057;-69
2023/05/04 08:09:57;;;;;;;5.97;5.05;;;19.20;76.80;;;;;;2623867;52;20969;-70
2023/05/04 08:12:25;;;;;;;8.07;6.07;;;19.30;76.50;;;;;;2624041;52;22018;-73
2023/05/04 08:14:52;;;;;;;6.70;5.20;;;19.40;76.20;;;;;;2624007;52;20933;-69
2023/05/04 08:17:19;;;;;;;9.95;4.95;;;19.50;76.00;;;;;;2374888;53;21328;-70
2023/05/04 08:19:46;;;;;;;8.07;5.30;;;19.60;75.90;;;;;;2609835;52;21002;-72
2023/05/04 08:22:12;;;;;;;10.25;5.37;;;19.70;75.70;;;;;;2623445;52;21790;-69
2023/05/04 08:24:38;;;;;;;6.68;4.80;;;19.80;75.70;;;;;;2624016;52;21549;-70
2023/05/04 08:27:05;;;;;;;6.07;4.68;;;19.90;75.60;;;;;;2623520;52;20914;-69
2023/05/04 08:29:35;;;;;;;6.47;4.87;;;19.90;75.40;;;;;;2371258;53;20958;-70
2023/05/04 08:32:01;;;;;;;6.12;4.90;;;20.10;75.50;;;;;;2623816;52;21018;-71
2023/05/04 08:34:27;;;;;;;6.90;4.93;;;20.20;75.50;;;;;;2623770;52;20903;-71
2023/05/04 08:36:53;;;;;;;5.78;4.62;;;20.20;75.30;;;;;;2370970;53;20933;-69
2023/05/04 08:39:20;;;;;;;6.20;4.97;;;20.30;75.50;;;;;;2370553;53;20970;-70
2023/05/04 08:41:46;;;;;;;6.22;4.82;;;20.40;75.20;;;;;;2623643;52;20922;-73
2023/05/04 08:44:13;;;;;;;8.65;4.57;;;20.50;75.10;;;;;;2373739;53;20997;-70
2023/05/04 08:46:39;;;;;;;6.18;4.65;;;20.60;75.10;;;;;;2624443;52;20946;-69
2023/05/04 08:49:06;;;;;;;6.72;4.75;;;20.70;74.80;;;;;;2370582;53;20914;-70
2023/05/04 08:51:35;;;;;;;6.43;4.95;;;20.70;74.60;;;;;;2623662;52;20938;-71
2023/05/04 08:54:01;;;;;;;5.50;4.37;;;20.90;74.40;;;;;;2370795;53;21419;-71
2023/05/04 08:56:27;;;;;;;5.90;4.82;;;21.00;74.70;;;;;;2371473;53;21048;-71
2023/05/04 08:59:00;;;;;;;6.65;5.03;;;21.00;74.50;;;;;;2623649;52;21010;-71
2023/05/04 09:01:26;;;;;;;7.35;5.25;;;21.10;74.40;;;;;;2371009;53;20966;-71
2023/05/04 09:03:52;;;;;;;6.12;4.85;;;21.20;74.40;;;;;;2370653;53;21842;-71
2023/05/04 09:06:19;;;;;;;6.65;5.12;;;21.20;74.30;;;;;;2374234;53;21824;-70
2023/05/04 09:08:45;;;;;;;6.62;4.62;;;21.20;74.20;;;;;;2370899;53;20966;-69
2023/05/04 09:11:12;;;;;;;7.12;5.80;;;21.30;74.10;;;;;;2622509;52;20921;-72
2023/05/04 09:13:38;;;;;;;6.25;5.28;;;21.40;74.00;;;;;;2370856;53;20902;-71
2023/05/04 09:16:06;;;;;;;6.90;5.35;;;21.50;74.20;;;;;;2623198;52;21392;-71
2023/05/04 09:18:42;;;;;;;5.90;4.80;;;21.60;74.60;;;;;;2623698;52;21039;-71
2023/05/04 09:21:10;;;;;;;5.75;4.50;;;21.70;74.00;;;;;;2622523;52;20898;-69
2023/05/04 09:23:49;;;;;;;5.80;4.80;;;21.80;74.90;;;;;;2373808;53;20919;-68
2023/05/04 09:26:25;;;;;;;6.10;5.03;;;22.00;73.90;;;;;;2622821;52;20947;-72
2023/05/04 09:28:51;;;;;;;6.32;5.07;;;22.10;74.00;;;;;;2622930;52;20926;-69
2023/05/04 09:31:19;;;;;;;6.43;4.80;;;22.20;75.20;;;;;;2370335;53;20930;-73
2023/05/04 09:33:45;;;;;;;5.43;4.37;;;22.30;75.30;;;;;;2370789;53;20937;-71
2023/05/04 09:36:13;;;;;;;5.72;4.57;;;22.40;75.20;;;;;;2623288;52;20922;-68
2023/05/04 09:38:40;;;;;;;6.28;4.90;;;22.60;74.90;;;;;;2370594;53;20914;-68
2023/05/04 09:41:06;;;;;;;6.53;5.22;;;22.60;74.40;;;;;;2370167;53;21018;-71
2023/05/04 09:43:39;;;;;;;5.97;4.47;;;22.70;74.50;;;;;;2623299;52;20999;-69
2023/05/04 09:46:07;;;;;;;6.62;4.90;;;22.80;73.60;;;;;;2357904;53;21005;-72
2023/05/04 09:48:33;;;;;;;5.50;4.22;;;22.90;74.50;;;;;;2370178;53;20997;-71
2023/05/04 09:51:02;;;;;;;5.40;4.15;;;23.00;74.50;;;;;;2623443;52;21021;-72
2023/05/04 09:53:29;;;;;;;5.47;4.40;;;23.20;74.40;;;;;;2371004;52;20957;-72
2023/05/04 09:56:13;;;;;;;6.12;4.50;;;23.30;74.30;;;;;;2370900;53;21021;-70
2023/05/04 09:58:39;;;;;;;5.28;4.03;;;23.30;71.90;;;;;;2623599;52;20950;-70
2023/05/04 10:01:07;;;;;;;5.25;4.28;;;23.40;73.50;;;;;;2623168;52;20982;-69
2023/05/04 10:03:34;;;;;;;6.15;4.45;;;23.50;73.30;;;;;;2370530;53;21704;-70
2023/05/04 10:06:03;;;;;;;5.32;3.80;;;23.50;73.20;;;;;;2623026;52;21011;-70
2023/05/04 10:08:32;;;;;;;5.97;4.82;;;23.60;72.80;;;;;;2623055;52;21031;-69
2023/05/04 10:10:58;;;;;;;7.57;4.62;;;23.60;72.90;;;;;;2371072;53;21002;-68
2023/05/04 10:13:25;;;;;;;6.22;4.22;;;23.70;72.80;;;;;;2370774;53;21001;-70
2023/05/04 10:20:32;;;;;;;5.93;4.18;;;23.80;72.90;;;;;;2370692;53;20922;-68
2023/05/04 10:29:29;;;;;;;4.45;3.53;;;24.00;71.30;;;;;;2623842;52;20938;-70
2023/05/04 10:31:56;;;;;;;4.80;3.47;;;24.20;71.70;;;;;;2623487;52;20934;-69
2023/05/04 10:34:29;;;;;;;5.65;4.07;;;24.30;73.80;;;;;;2370527;53;20946;-70
2023/05/04 10:36:59;;;;;;;5.00;4.07;;;24.40;72.20;;;;;;2623790;52;20957;-71
2023/05/04 10:39:28;;;;;;;4.97;3.95;;;24.40;73.10;;;;;;2623658;52;22019;-69
2023/05/04 10:42:04;;;;;;;5.30;4.40;;;24.50;72.90;;;;;;2371029;52;20926;-69
2023/05/04 10:44:32;;;;;;;5.75;4.37;;;24.60;71.50;;;;;;2371004;53;20985;-70
2023/05/04 10:47:04;;;;;;;5.55;4.57;;;24.60;73.00;;;;;;2374132;53;21894;-68
2023/05/04 10:49:31;;;;;;;7.00;4.03;;;24.70;72.80;;;;;;2622563;52;20974;-70
2023/05/04 10:52:31;;;;;;;4.82;3.80;;;24.80;72.90;;;;;;2370995;53;20949;-70
2023/05/04 10:55:00;;;;;;;5.22;3.75;;;24.90;70.20;;;;;;2623859;52;20930;-70
2023/05/04 10:57:27;;;;;;;4.35;3.47;;;25.00;72.60;;;;;;2622996;52;20969;-70
2023/05/04 10:59:57;;;;;;;4.75;3.92;;;25.00;72.60;;;;;;2621504;52;20969;-69
2023/05/04 11:02:24;;;;;;;5.72;3.22;;;25.10;71.50;;;;;;2372222;53;20944;-69
2023/05/04 11:05:04;;;;;;;5.18;4.12;;;25.20;71.90;;;;;;2370356;53;20974;-69
2023/05/04 11:07:37;;;;;;;5.18;4.03;;;25.20;69.90;;;;;;2623136;52;20942;-70
2023/05/04 11:10:08;;;;;;;7.30;4.20;;;25.20;71.00;;;;;;2622336;52;21013;-69
2023/05/04 11:12:36;;;;;;;6.15;4.22;;;25.30;71.20;;;;;;2372895;53;20939;-69
2023/05/04 11:15:06;;;;;;;5.00;3.80;;;25.40;71.50;;;;;;2622521;52;21512;-70
2023/05/04 11:17:43;;;;;;;5.15;3.60;;;25.50;71.10;;;;;;2623075;52;20997;-69
2023/05/04 11:20:10;;;;;;;4.95;3.47;;;25.50;71.20;;;;;;2622956;52;20961;-70
2023/05/04 11:22:37;;;;;;;4.75;3.80;;;25.60;71.10;;;;;;2370171;53;20970;-69
2023/05/04 11:25:05;;;;;;;4.18;3.42;;;25.60;70.80;;;;;;2370210;53;21711;-70
2023/05/04 11:27:31;;;;;;;4.57;3.47;;;25.70;70.70;;;;;;2621807;52;21080;-73
2023/05/04 11:30:03;;;;;;;4.90;3.60;;;25.70;70.50;;;;;;2370081;53;20933;-69
2023/05/04 11:32:35;;;;;;;4.50;3.33;;;25.70;69.70;;;;;;2370725;53;20934;-70
2023/05/04 11:35:02;;;;;;;4.75;3.33;;;25.80;70.10;;;;;;2622708;52;20915;-70
2023/05/04 11:37:29;;;;;;;3.87;2.97;;;25.90;70.90;;;;;;2371872;53;21787;-69
2023/05/04 11:39:55;;;;;;;4.20;3.35;;;26.00;70.90;;;;;;2622900;52;20976;-68
2023/05/04 11:42:22;;;;;;;5.75;3.12;;;26.00;70.50;;;;;;2621732;52;21017;-68
2023/05/04 11:44:49;;;;;;;4.00;3.22;;;26.10;70.20;;;;;;2622220;52;21512;-69
2023/05/04 11:47:16;;;;;;;3.90;2.87;;;26.10;70.30;;;;;;2372381;52;21067;-68
2023/05/04 11:49:44;;;;;;;5.03;3.20;;;26.20;70.50;;;;;;2370106;53;20954;-69
2023/05/04 11:52:11;;;;;;;4.47;3.00;;;26.30;70.30;;;;;;2369913;53;20942;-70
2023/05/04 11:54:37;;;;;;;3.87;2.90;;;26.40;70.50;;;;;;2369809;53;20951;-69
2023/05/04 11:57:03;;;;;;;4.55;3.45;;;26.40;70.70;;;;;;2369402;53;20998;-67
2023/05/04 11:59:30;;;;;;;3.83;2.60;;;26.50;70.90;;;;;;2369679;53;21444;-68
2023/05/04 12:01:57;;;;;;;4.10;2.97;;;26.60;70.70;;;;;;2368888;53;20998;-71
2023/05/04 12:04:29;;;;;;;4.05;3.15;;;26.70;70.50;;;;;;2622028;52;21053;-69
2023/05/04 12:06:56;;;;;;;5.28;3.00;;;26.80;68.60;;;;;;2369481;53;20901;-69
2023/05/04 12:09:22;;;;;;;4.20;2.70;;;26.80;70.00;;;;;;2622306;52;20970;-70
2023/05/04 12:11:55;;;;;;;3.50;2.58;;;26.90;69.80;;;;;;2621171;52;20972;-69
2023/05/04 12:14:23;;;;;;;3.70;2.65;;;27.00;68.60;;;;;;2621546;52;21432;-69
2023/05/04 12:16:53;;;;;;;3.72;2.60;;;27.10;69.40;;;;;;2370243;53;20985;-69
2023/05/04 12:19:19;;;;;;;3.65;2.72;;;27.10;68.40;;;;;;2369377;53;20934;-70
2023/05/04 12:22:04;;;;;;;3.67;2.50;;;27.10;69.00;;;;;;2369950;53;20961;-68
2023/05/04 12:24:31;;;;;;;3.40;2.60;;;27.20;66.00;;;;;;2622309;52;20938;-68
2023/05/04 12:26:58;;;;;;;3.47;2.33;;;27.30;69.00;;;;;;2623306;52;20891;-69
2023/05/04 12:29:24;;;;;;;3.78;2.75;;;27.30;68.80;;;;;;2622379;52;20930;-70
2023/05/04 12:31:52;;;;;;;3.60;2.53;;;27.30;68.50;;;;;;2370415;53;20902;-69
2023/05/04 12:34:18;;;;;;;3.85;2.70;;;27.30;68.30;;;;;;2623118;52;21768;-69
2023/05/04 12:36:45;;;;;;;6.45;3.25;;;27.40;68.10;;;;;;2622600;52;20966;-69
2023/05/04 12:39:11;;;;;;;3.55;2.58;;;27.40;67.70;;;;;;2370004;53;20942;-68
2023/05/04 12:41:37;;;;;;;4.50;2.78;;;27.40;67.60;;;;;;2370071;53;21361;-69
2023/05/04 12:44:04;;;;;;;4.87;2.37;;;27.40;67.60;;;;;;2370303;53;21049;-68
2023/05/04 12:46:30;;;;;;;3.05;2.33;;;27.50;67.70;;;;;;2369672;53;21040;-70
2023/05/04 12:48:58;;;;;;;4.15;2.50;;;27.50;67.70;;;;;;2623124;52;20898;-68
2023/05/04 12:51:24;;;;;;;3.85;2.58;;;27.50;67.70;;;;;;2621750;52;21017;-69
2023/05/04 12:53:50;;;;;;;3.53;2.60;;;27.60;67.80;;;;;;2369307;53;20985;-68
2023/05/04 12:56:18;;;;;;;3.40;2.30;;;27.60;67.40;;;;;;2621876;52;20992;-68
2023/05/04 12:58:44;;;;;;;3.37;2.55;;;27.60;67.50;;;;;;2370144;53;20934;-68
2023/05/04 13:01:12;;;;;;;4.15;2.97;;;27.70;67.20;;;;;;2370586;53;21061;-68
2023/05/04 13:03:39;;;;;;;3.80;2.53;;;27.70;67.20;;;;;;2621932;52;21494;-68
2023/05/04 13:06:05;;;;;;;3.45;2.70;;;27.80;67.00;;;;;;2370401;53;20969;-68